createdAt,value
2022-12-31T00:02:02.446Z,100947.98
2022-12-31T00:04:32.451Z,100956.91
2022-12-31T00:07:02.745Z,100955.77
2022-12-31T00:09:35.615Z,100960.77
2022-12-31T00:12:06.335Z,100968.49
2022-12-31T00:14:36.838Z,100965.89
2022-12-31T00:17:07.959Z,100977.25
2022-12-31T00:19:37.480Z,100980.92
2022-12-31T00:22:07.294Z,100970.91
2022-12-31T00:24:36.726Z,100983.25
2022-12-31T00:27:09.498Z,100983.66
2022-12-31T00:29:39.242Z,100985.06
2022-12-31T00:32:08.964Z,100993.09
2022-12-31T00:34:38.628Z,100990.06
2022-12-31T00:37:08.546Z,100988.03
2022-12-31T00:39:38.091Z,100994.84
2022-12-31T00:42:09.086Z,100992.80
2022-12-31T00:44:40.627Z,100998.48
2022-12-31T00:47:10.160Z,100996.66
2022-12-31T00:49:41.355Z,100997.06
2022-12-31T00:52:13.324Z,100995.12
2022-12-31T00:54:42.589Z,100994.39
2022-12-31T00:57:12.417Z,100992.05
2022-12-31T00:59:42.264Z,101000.56
2022-12-31T01:02:11.959Z,101001.70
2022-12-31T01:04:41.487Z,101000.98
2022-12-31T01:07:11.480Z,101012.78
2022-12-31T01:09:41.191Z,101019.08
2022-12-31T01:12:11.689Z,101012.58
2022-12-31T01:14:42.636Z,101014.69
2022-12-31T01:17:13.440Z,101018.14
2022-12-31T01:19:43.211Z,101015.95
2022-12-31T01:22:12.829Z,101021.61
2022-12-31T01:24:42.749Z,101021.64
2022-12-31T01:27:12.541Z,101019.31
2022-12-31T01:29:41.888Z,101016.87
2022-12-31T01:32:12.252Z,101019.09
2022-12-31T01:34:42.620Z,101026.94
2022-12-31T01:37:12.236Z,101024.98
2022-12-31T01:39:41.649Z,101037.88
2022-12-31T01:42:13.151Z,101038.88
2022-12-31T01:44:52.034Z,101041.20
2022-12-31T01:47:35.990Z,101034.47
2022-12-31T01:50:23.992Z,101029.67
2022-12-31T01:52:57.763Z,101033.86
2022-12-31T01:55:38.317Z,101017.03
2022-12-31T01:58:23.483Z,101027.45
2022-12-31T02:00:53.274Z,101023.64
2022-12-31T02:03:23.353Z,101028.55
2022-12-31T02:06:24.037Z,101036.78
2022-12-31T02:08:53.427Z,101036.67
2022-12-31T02:11:31.180Z,101033.00
2022-12-31T02:14:04.655Z,101037.54
2022-12-31T02:16:57.585Z,101037.80
2022-12-31T02:19:58.692Z,101050.81
2022-12-31T02:23:10.613Z,101050.83
2022-12-31T02:26:22.587Z,101050.83
2022-12-31T02:29:16.630Z,101057.82
2022-12-31T02:31:59.170Z,101059.91
2022-12-31T02:34:36.561Z,101065.19
2022-12-31T02:37:09.235Z,101070.34
2022-12-31T02:39:38.847Z,101064.94
2022-12-31T02:42:08.206Z,101061.50
2022-12-31T02:44:41.775Z,101068.38
2022-12-31T02:47:25.648Z,101064.33
2022-12-31T02:50:15.714Z,101058.81
2022-12-31T02:53:12.675Z,101063.47
2022-12-31T02:56:03.358Z,101067.52
2022-12-31T02:59:23.999Z,101070.84
2022-12-31T03:02:13.705Z,101069.48
2022-12-31T03:04:53.254Z,101068.75
2022-12-31T03:07:28.230Z,101073.66
2022-12-31T03:09:58.211Z,101072.92
2022-12-31T03:12:48.724Z,101066.66
2022-12-31T03:15:28.892Z,101070.10
2022-12-31T03:18:07.442Z,101068.51
2022-12-31T03:20:59.412Z,101071.20
2022-12-31T03:23:37.618Z,101072.19
2022-12-31T03:26:11.616Z,101076.61
2022-12-31T03:28:45.260Z,101068.63
2022-12-31T03:31:16.530Z,101069.61
2022-12-31T03:33:46.353Z,101067.52
2022-12-31T03:36:17.113Z,101065.93
2022-12-31T03:38:52.544Z,101061.63
2022-12-31T03:41:20.799Z,101065.44
2022-12-31T03:43:50.121Z,101071.05
2022-12-31T03:46:19.903Z,101075.09
2022-12-31T03:48:51.211Z,101069.43
2022-12-31T03:51:20.712Z,101081.08
2022-12-31T03:53:50.576Z,101091.13
2022-12-31T03:56:20.490Z,101086.84
2022-12-31T03:58:51.992Z,101083.66
2022-12-31T04:01:23.403Z,101088.56
2022-12-31T04:03:55.109Z,101091.52
2022-12-31T04:06:24.107Z,101087.47
2022-12-31T04:08:54.481Z,101094.72
2022-12-31T04:11:26.665Z,101094.59
2022-12-31T04:13:59.105Z,101089.08
2022-12-31T04:16:29.298Z,101088.72
2022-12-31T04:19:00.033Z,101090.55
2022-12-31T04:21:34.770Z,101093.25
2022-12-31T04:24:02.450Z,101102.70
2022-12-31T04:26:32.585Z,101113.00
2022-12-31T04:29:03.357Z,101115.57
2022-12-31T04:31:34.867Z,101111.16
2022-12-31T04:34:06.001Z,101113.24
2022-12-31T04:36:36.241Z,101112.27
2022-12-31T04:39:05.697Z,101108.47
2022-12-31T04:41:35.852Z,101111.04
2022-12-31T04:44:06.249Z,101113.50
2022-12-31T04:46:36.018Z,101124.06
2022-12-31T04:49:07.166Z,101127.78
2022-12-31T04:51:37.909Z,101124.47
2022-12-31T04:54:08.537Z,101129.25
2022-12-31T04:56:37.845Z,101130.23
2022-12-31T04:59:07.556Z,101141.27
2022-12-31T05:01:37.215Z,101146.42
2022-12-31T05:04:06.897Z,101141.02
2022-12-31T05:06:36.694Z,101143.61
2022-12-31T05:09:08.445Z,101147.28
2022-12-31T05:11:38.156Z,101154.41
2022-12-31T05:14:08.659Z,101164.22
2022-12-31T05:16:38.221Z,101166.06
2022-12-31T05:19:09.532Z,101168.52
2022-12-31T05:21:39.151Z,101167.05
2022-12-31T05:24:08.887Z,101168.28
2022-12-31T05:26:40.969Z,101167.91
2022-12-31T05:29:10.555Z,101165.34
2022-12-31T05:31:40.009Z,101164.36
2022-12-31T05:34:09.091Z,101159.08
2022-12-31T05:36:38.388Z,101163.86
2022-12-31T05:39:09.875Z,101157.11
2022-12-31T05:41:39.845Z,101157.60
2022-12-31T05:44:11.381Z,101160.67
2022-12-31T05:46:40.898Z,101163.00
2022-12-31T05:49:10.623Z,101164.23
2022-12-31T05:51:40.099Z,101152.94
2022-12-31T05:54:10.334Z,101157.36
2022-12-31T05:56:40.273Z,101159.20
2022-12-31T05:59:09.885Z,101160.06
2022-12-31T06:01:40.198Z,101160.19
2022-12-31T06:04:09.591Z,101161.77
2022-12-31T06:06:40.913Z,101158.22
2022-12-31T06:09:10.430Z,101156.74
2022-12-31T06:11:39.909Z,101159.20
2022-12-31T06:14:09.556Z,101155.03
2022-12-31T06:16:40.837Z,101161.41
2022-12-31T06:19:10.331Z,101170.98
2022-12-31T06:21:39.930Z,101162.88
2022-12-31T06:24:09.953Z,101158.34
2022-12-31T06:26:39.500Z,101163.38
2022-12-31T06:29:08.733Z,101169.27
2022-12-31T06:31:39.577Z,101165.47
2022-12-31T06:34:10.439Z,101165.97
2022-12-31T06:36:41.104Z,101176.52
2022-12-31T06:39:10.993Z,101168.42
2022-12-31T06:41:41.135Z,101160.57
2022-12-31T06:44:12.077Z,101164.01
2022-12-31T06:46:45.537Z,101159.59
2022-12-31T06:49:15.123Z,101162.42
2022-12-31T06:51:48.739Z,101175.93
2022-12-31T06:54:18.905Z,101178.02
2022-12-31T06:56:49.484Z,101190.42
2022-12-31T06:59:25.940Z,101197.91
2022-12-31T07:02:33.444Z,101192.39
2022-12-31T07:05:17.692Z,101192.15
2022-12-31T07:08:09.328Z,101192.89
2022-12-31T07:11:02.482Z,101190.06
2022-12-31T07:13:53.924Z,101187.11
2022-12-31T07:16:44.017Z,101186.13
2022-12-31T07:19:32.995Z,101192.89
2022-12-31T07:22:03.074Z,101189.81
2022-12-31T07:24:33.623Z,101191.16
2022-12-31T07:27:22.606Z,101190.92
2022-12-31T07:30:03.353Z,101192.64
2022-12-31T07:32:58.250Z,101193.37
2022-12-31T07:36:25.514Z,101191.05
2022-12-31T07:39:11.603Z,101199.52
2022-12-31T07:42:02.595Z,101192.67
2022-12-31T07:44:44.110Z,101190.45
2022-12-31T07:47:25.995Z,101192.91
2022-12-31T07:49:56.996Z,101198.20
2022-12-31T07:52:27.982Z,101205.94
2022-12-31T07:54:57.248Z,101196.34
2022-12-31T07:57:31.742Z,101196.05
2022-12-31T08:00:09.420Z,101187.64
2022-12-31T08:03:42.114Z,101193.41
2022-12-31T08:06:14.881Z,101204.85
2022-12-31T08:08:52.804Z,101207.75
2022-12-31T08:11:30.479Z,101205.85
2022-12-31T08:14:02.827Z,101200.32
2022-12-31T08:16:34.567Z,101198.25
2022-12-31T08:19:04.817Z,101190.54
2022-12-31T08:21:46.025Z,101197.92
2022-12-31T08:25:01.128Z,101199.48
2022-12-31T08:28:08.043Z,101196.28
2022-12-31T08:30:59.412Z,101200.84
2022-12-31T08:33:49.463Z,101202.56
2022-12-31T08:36:48.765Z,101202.70
2022-12-31T08:39:56.281Z,101197.78
2022-12-31T08:42:38.513Z,101194.06
2022-12-31T08:45:25.542Z,101178.84
2022-12-31T08:48:04.256Z,101180.26
2022-12-31T08:50:36.045Z,101171.68
2022-12-31T08:53:06.896Z,101161.46
2022-12-31T08:55:37.679Z,101163.82
2022-12-31T08:58:47.559Z,101159.75
2022-12-31T09:01:21.136Z,101151.46
2022-12-31T09:04:05.215Z,101151.68
2022-12-31T09:06:41.559Z,101145.11
2022-12-31T09:09:53.422Z,101139.40
2022-12-31T09:12:43.239Z,101138.25
2022-12-31T09:15:30.629Z,101144.47
2022-12-31T09:18:01.636Z,101145.69
2022-12-31T09:20:42.788Z,101146.40
2022-12-31T09:23:05.887Z,101144.40
2022-12-31T09:25:36.949Z,101134.62
2022-12-31T09:28:19.772Z,101136.69
2022-12-31T09:31:06.745Z,101135.05
2022-12-31T09:34:02.260Z,101131.75
2022-12-31T09:36:45.492Z,101129.47
2022-12-31T09:39:32.085Z,101130.03
2022-12-31T09:42:31.039Z,101132.32
2022-12-31T09:45:16.329Z,101136.96
2022-12-31T09:47:57.071Z,101135.53
2022-12-31T09:50:53.607Z,101133.98
2022-12-31T09:53:43.815Z,101131.03
2022-12-31T09:56:39.549Z,101124.72
2022-12-31T09:59:33.048Z,101122.84
2022-12-31T10:02:26.025Z,101111.08
2022-12-31T10:05:23.754Z,101107.47
2022-12-31T10:08:21.904Z,101097.21
2022-12-31T10:10:59.126Z,101091.02
2022-12-31T10:13:48.882Z,101086.11
2022-12-31T10:16:41.945Z,101088.23
2022-12-31T10:19:43.541Z,101083.89
2022-12-31T10:22:36.597Z,101069.33
2022-12-31T10:25:59.112Z,101062.11
2022-12-31T10:29:12.420Z,101045.83
2022-12-31T10:32:07.863Z,101042.15
2022-12-31T10:35:04.229Z,101040.13
2022-12-31T10:38:05.675Z,101034.53
2022-12-31T10:41:23.583Z,101035.89
2022-12-31T10:44:28.227Z,101038.61
2022-12-31T10:47:22.979Z,101031.45
2022-12-31T10:50:29.545Z,101030.80
2022-12-31T10:53:26.144Z,101022.28
2022-12-31T10:56:18.349Z,101019.25
2022-12-31T10:58:55.889Z,101023.69
2022-12-31T11:01:34.130Z,101023.87
2022-12-31T11:04:45.911Z,101022.20
2022-12-31T11:07:46.683Z,101026.13
2022-12-31T11:10:55.570Z,101024.11
2022-12-31T11:14:11.268Z,101016.14
2022-12-31T11:17:15.756Z,100994.20
2022-12-31T11:19:50.782Z,100993.89
2022-12-31T11:22:42.317Z,101005.86
2022-12-31T11:25:42.443Z,101005.36
2022-12-31T11:28:33.860Z,101006.05
2022-12-31T11:31:23.701Z,101004.19
2022-12-31T11:34:24.612Z,101003.52
2022-12-31T11:37:34.569Z,101006.44
2022-12-31T11:40:36.104Z,100998.45
2022-12-31T11:43:29.832Z,100987.76
2022-12-31T11:46:32.241Z,100986.59
2022-12-31T11:49:28.665Z,100982.88
2022-12-31T11:52:21.615Z,100992.45
2022-12-31T11:55:02.647Z,100990.07
2022-12-31T11:57:36.969Z,100986.84
2022-12-31T12:00:23.534Z,100981.93
2022-12-31T12:03:02.816Z,100977.84
2022-12-31T12:05:34.813Z,100975.81
2022-12-31T12:08:04.705Z,100973.78
2022-12-31T12:10:49.233Z,100976.00
2022-12-31T12:13:26.163Z,100968.69
2022-12-31T12:16:02.190Z,100958.48
2022-12-31T12:19:06.294Z,100960.19
2022-12-31T12:21:35.472Z,100969.56
2022-12-31T12:24:09.388Z,100967.35
2022-12-31T12:26:42.727Z,100965.48
2022-12-31T12:29:24.276Z,100967.70
2022-12-31T12:32:08.131Z,100948.28
2022-12-31T12:34:45.926Z,100956.80
2022-12-31T12:37:34.802Z,100947.08
2022-12-31T12:40:20.343Z,100948.95
2022-12-31T12:42:50.463Z,100944.17
2022-12-31T12:45:26.554Z,100945.34
2022-12-31T12:48:03.198Z,100949.94
2022-12-31T12:50:43.225Z,100939.55
2022-12-31T12:53:36.770Z,100955.89
2022-12-31T12:56:30.700Z,100964.57
2022-12-31T12:59:22.505Z,100966.25
2022-12-31T13:02:43.655Z,100961.47
2022-12-31T13:05:34.084Z,100960.27
2022-12-31T13:08:12.064Z,100963.82
2022-12-31T13:10:49.970Z,100958.19
2022-12-31T13:13:46.578Z,100952.39
2022-12-31T13:16:34.244Z,100954.92
2022-12-31T13:19:35.759Z,100957.11
2022-12-31T13:22:28.800Z,100963.06
2022-12-31T13:25:12.855Z,100956.92
2022-12-31T13:27:45.041Z,100955.53
2022-12-31T13:30:26.898Z,100953.13
2022-12-31T13:33:16.328Z,100954.80
2022-12-31T13:35:51.333Z,100947.27
2022-12-31T13:38:39.907Z,100955.75
2022-12-31T13:41:28.641Z,100956.91
2022-12-31T13:44:25.827Z,100954.35
2022-12-31T13:47:23.665Z,100957.73
2022-12-31T13:50:35.650Z,100953.47
2022-12-31T13:53:26.614Z,100940.52
2022-12-31T13:56:03.008Z,100932.51
2022-12-31T13:58:46.182Z,100939.98
2022-12-31T14:01:33.888Z,100944.88
2022-12-31T14:04:32.684Z,100944.34
2022-12-31T14:07:34.739Z,100946.36
2022-12-31T14:10:01.276Z,100946.67
2022-12-31T14:12:51.231Z,100950.41
2022-12-31T14:15:41.124Z,100950.37
2022-12-31T14:18:50.412Z,100952.89
2022-12-31T14:21:26.525Z,100960.86
2022-12-31T14:24:06.447Z,100955.23
2022-12-31T14:26:41.987Z,100943.30
2022-12-31T14:29:20.421Z,100932.41
2022-12-31T14:32:01.257Z,100936.65
2022-12-31T14:34:42.288Z,100938.36
2022-12-31T14:37:23.045Z,100936.30
2022-12-31T14:40:39.807Z,100919.13
2022-12-31T14:43:20.581Z,100926.94
2022-12-31T14:46:22.787Z,100930.66
2022-12-31T14:49:35.022Z,100931.17
2022-12-31T14:52:28.027Z,100939.33
2022-12-31T14:55:16.084Z,100938.63
2022-12-31T15:00:40.952Z,100925.14
2022-12-31T15:03:27.889Z,100928.72
2022-12-31T15:06:11.790Z,100914.97
2022-12-31T15:09:15.828Z,100911.73
2022-12-31T15:12:03.439Z,100920.60
2022-12-31T15:14:42.309Z,100929.61
2022-12-31T15:17:44.233Z,100917.56
2022-12-31T15:20:24.315Z,100921.30
2022-12-31T15:22:53.611Z,100926.23
2022-12-31T15:25:40.462Z,100919.59
2022-12-31T15:28:29.528Z,100908.71
2022-12-31T15:31:19.681Z,100921.30
2022-12-31T15:34:10.942Z,100927.75
2022-12-31T15:36:47.185Z,100918.23
2022-12-31T15:39:33.928Z,100920.75
2022-12-31T15:42:36.608Z,100910.38
2022-12-31T15:44:50.071Z,100912.75
2022-12-31T15:47:31.498Z,100905.60
2022-12-31T15:50:06.861Z,100908.67
2022-12-31T15:52:43.393Z,100911.73
2022-12-31T15:55:41.259Z,100925.53
2022-12-31T15:58:18.589Z,100922.31
2022-12-31T16:01:17.302Z,100914.15
2022-12-31T16:04:07.635Z,100914.66
2022-12-31T16:06:38.101Z,100906.84
2022-12-31T16:09:10.174Z,100909.72
2022-12-31T16:11:41.489Z,100909.06
2022-12-31T16:14:37.104Z,100903.78
2022-12-31T16:17:07.256Z,100902.92
2022-12-31T16:19:44.423Z,100902.03
2022-12-31T16:22:18.526Z,100896.02
2022-12-31T16:25:29.155Z,100894.77
2022-12-31T16:27:30.460Z,100894.58
2022-12-31T16:30:04.788Z,100895.28
2022-12-31T16:32:39.597Z,100895.86
2022-12-31T16:35:26.812Z,100891.43
2022-12-31T16:38:17.453Z,100888.94
2022-12-31T16:41:10.995Z,100883.53
2022-12-31T16:43:41.951Z,100876.08
2022-12-31T16:46:28.080Z,100871.17
2022-12-31T16:49:05.398Z,100863.36
2022-12-31T16:51:35.302Z,100867.83
2022-12-31T16:54:05.545Z,100869.53
2022-12-31T16:56:38.901Z,100866.66
2022-12-31T16:59:22.274Z,100865.99
2022-12-31T17:01:51.150Z,100870.42
2022-12-31T17:04:21.152Z,100874.19
2022-12-31T17:06:50.899Z,100873.88
2022-12-31T17:09:23.219Z,100867.77
2022-12-31T17:12:01.079Z,100869.83
2022-12-31T17:14:31.522Z,100862.01
2022-12-31T17:17:07.213Z,100853.69
2022-12-31T17:19:54.233Z,100861.34
2022-12-31T17:22:37.011Z,100863.05
2022-12-31T17:25:08.983Z,100860.67
2022-12-31T17:27:39.774Z,100859.83
2022-12-31T17:30:35.134Z,100865.61
2022-12-31T17:33:24.870Z,100861.88
2022-12-31T17:36:17.314Z,100855.42
2022-12-31T17:38:46.880Z,100853.56
2022-12-31T17:41:24.221Z,100853.56
2022-12-31T17:43:58.358Z,100854.57
2022-12-31T17:46:28.370Z,100856.44
2022-12-31T17:49:02.032Z,100851.50
2022-12-31T17:51:33.691Z,100840.27
2022-12-31T17:54:03.622Z,100836.19
2022-12-31T17:56:35.095Z,100845.88
2022-12-31T17:59:04.795Z,100845.02
2022-12-31T18:01:34.971Z,100843.16
2022-12-31T18:04:11.060Z,100854.54
2022-12-31T18:06:40.668Z,100853.34
2022-12-31T18:09:10.417Z,100863.02
2022-12-31T18:11:42.567Z,100866.41
2022-12-31T18:14:14.899Z,100867.92
2022-12-31T18:16:44.546Z,100875.39
2022-12-31T18:19:37.787Z,100882.35
2022-12-31T18:21:47.161Z,100876.21
2022-12-31T18:24:24.227Z,100875.86
2022-12-31T18:26:51.256Z,100877.89
2022-12-31T18:29:22.843Z,100883.99
2022-12-31T18:31:52.221Z,100887.38
2022-12-31T18:34:21.641Z,100898.61
2022-12-31T18:36:52.109Z,100904.39
2022-12-31T18:39:21.311Z,100899.45
2022-12-31T18:41:50.842Z,100893.66
2022-12-31T18:44:20.831Z,100893.16
2022-12-31T18:46:54.073Z,100898.91
2022-12-31T18:49:24.610Z,100905.72
2022-12-31T18:51:55.282Z,100901.64
2022-12-31T18:54:25.810Z,100892.97
2022-12-31T18:56:57.301Z,100884.81
2022-12-31T18:59:27.181Z,100877.66
2022-12-31T19:01:57.017Z,100857.92
2022-12-31T19:04:28.457Z,100851.98
2022-12-31T19:06:57.860Z,100843.47
2022-12-31T19:09:45.977Z,100831.58
2022-12-31T19:12:01.948Z,100827.50
2022-12-31T19:14:32.783Z,100816.45
2022-12-31T19:19:31.279Z,100824.45
2022-12-31T19:22:01.315Z,100818.01
2022-12-31T19:24:32.518Z,100818.36
2022-12-31T19:27:02.520Z,100822.78
2022-12-31T19:29:32.502Z,100814.62
2022-12-31T19:32:02.422Z,100812.75
2022-12-31T19:34:33.224Z,100818.55
2022-12-31T19:37:03.191Z,100820.60
2022-12-31T19:39:33.828Z,100823.51
2022-12-31T19:42:04.038Z,100819.94
2022-12-31T19:44:34.551Z,100832.88
2022-12-31T19:47:06.087Z,100832.55
2022-12-31T19:49:37.341Z,100839.89
2022-12-31T19:52:07.159Z,100846.03
2022-12-31T19:54:37.187Z,100849.09
2022-12-31T19:57:09.246Z,100848.78
2022-12-31T19:59:40.523Z,100838.59
2022-12-31T20:02:10.930Z,100830.78
2022-12-31T20:04:40.211Z,100826.03
2022-12-31T20:07:10.664Z,100823.66
2022-12-31T20:09:41.496Z,100818.21
2022-12-31T20:12:11.489Z,100813.62
2022-12-31T20:14:41.296Z,100813.78
2022-12-31T20:17:12.049Z,100817.89
2022-12-31T20:19:41.632Z,100813.64
2022-12-31T20:22:11.275Z,100812.63
2022-12-31T20:24:42.307Z,100819.63
2022-12-31T20:27:18.144Z,100831.55
2022-12-31T20:29:42.839Z,100833.92
2022-12-31T20:32:15.637Z,100832.75
2022-12-31T20:34:45.056Z,100824.42
2022-12-31T20:37:14.781Z,100833.79
2022-12-31T20:39:43.984Z,100827.33
2022-12-31T20:42:14.053Z,100831.28
2022-12-31T20:44:45.434Z,100833.84
2022-12-31T20:47:16.034Z,100832.99
2022-12-31T20:50:10.242Z,100836.06
2022-12-31T20:52:17.759Z,100843.21
2022-12-31T20:54:48.943Z,100832.67
2022-12-31T20:57:18.507Z,100842.55
2022-12-31T20:59:48.297Z,100842.55
2022-12-31T21:02:21.328Z,100834.56
2022-12-31T21:04:50.390Z,100833.04
2022-12-31T21:07:21.023Z,100820.97
2022-12-31T21:09:50.708Z,100819.10
2022-12-31T21:12:40.764Z,100823.19
2022-12-31T21:15:12.778Z,100821.82
2022-12-31T21:17:43.380Z,100813.33
2022-12-31T21:20:13.329Z,100824.56
2022-12-31T21:22:43.026Z,100832.06
2022-12-31T21:25:13.567Z,100817.78
2022-12-31T21:27:42.971Z,100801.28
2022-12-31T21:30:18.802Z,100796.69
2022-12-31T21:32:46.829Z,100798.73
2022-12-31T21:37:58.991Z,100783.09
2022-12-31T21:40:23.241Z,100799.77
2022-12-31T21:42:53.946Z,100808.63
2022-12-31T21:45:23.747Z,100800.30
2022-12-31T21:48:11.867Z,100797.92
2022-12-31T21:50:42.491Z,100798.77
2022-12-31T21:53:14.339Z,100789.58
2022-12-31T21:56:04.448Z,100781.41
2022-12-31T21:58:38.668Z,100781.92
2022-12-31T22:01:26.988Z,100788.22
2022-12-31T22:03:56.510Z,100785.84
2022-12-31T22:06:26.321Z,100769.84
2022-12-31T22:08:55.924Z,100768.48
2022-12-31T22:11:28.373Z,100770.19
2022-12-31T22:13:58.283Z,100777.34
2022-12-31T22:16:27.838Z,100774.80
2022-12-31T22:18:57.389Z,100766.97
2022-12-31T22:21:27.506Z,100766.12
2022-12-31T22:23:58.794Z,100771.56
2022-12-31T22:26:29.360Z,100776.69
2022-12-31T22:28:59.722Z,100775.67
2022-12-31T22:31:30.361Z,100777.20
2022-12-31T22:33:59.832Z,100772.27
2022-12-31T22:36:29.357Z,100770.23
2022-12-31T22:38:58.963Z,100772.79
2022-12-31T22:41:30.387Z,100759.51
2022-12-31T22:44:03.655Z,100762.74
2022-12-31T22:46:32.241Z,100760.70
2022-12-31T22:49:02.986Z,100768.38
2022-12-31T22:51:56.581Z,100768.71
2022-12-31T22:54:04.674Z,100754.07
2022-12-31T22:56:34.361Z,100748.63
2022-12-31T22:59:04.005Z,100749.47
2022-12-31T23:01:34.923Z,100748.11
2022-12-31T23:04:05.752Z,100736.20
2022-12-31T23:06:37.366Z,100750.67
2022-12-31T23:09:26.472Z,100757.66
2022-12-31T23:11:59.281Z,100747.61
2022-12-31T23:14:46.994Z,100752.20
2022-12-31T23:17:38.225Z,100766.52
2022-12-31T23:20:40.054Z,100760.05
2022-12-31T23:23:15.484Z,100761.06
2022-12-31T23:25:50.359Z,100759.91
2022-12-31T23:28:23.421Z,100744.42
2022-12-31T23:30:53.844Z,100735.73
2022-12-31T23:33:25.448Z,100729.60
2022-12-31T23:36:05.244Z,100716.83
2022-12-31T23:38:34.896Z,100717.17
2022-12-31T23:41:18.003Z,100718.37
2022-12-31T23:43:47.404Z,100720.41
2022-12-31T23:46:17.466Z,100718.03
2022-12-31T23:48:47.285Z,100708.32
2022-12-31T23:51:17.857Z,100728.08
2022-12-31T23:53:47.249Z,100727.41
2022-12-31T23:56:23.308Z,100713.09
2022-12-31T23:58:55.914Z,100710.89
